This is the latest recevied weather packets stored in our database for station/object OM8AKX-12. If no packets are shown the sender has not sent any weather packets the latest 10 day(s).
| Time | Temp. | Humidity | Pressure | Rain* | Wind** | Luminosity | Snow |
|---|---|---|---|---|---|---|---|
| 1787985386 | 22.78° C | 43% | 1010.1 hPa | - | - | - | - |
| 1787984486 | 22.22° C | 44% | 1010.3 hPa | - | - | - | - |
| 1787983586 | 21.67° C | 45% | 1010.3 hPa | - | - | - | - |
| 1787982686 | 20.56° C | 47% | 1010.3 hPa | - | - | - | - |
| 1787981786 | 20° C | 48% | 1010.6 hPa | - | - | - | - |
| 1787980886 | 19.44° C | 49% | 1010.6 hPa | - | - | - | - |
| 1787979986 | 19.44° C | 48% | 1010.5 hPa | - | - | - | - |
| 1787979086 | 19.44° C | 50% | 1010.7 hPa | - | - | - | - |
| 1787978185 | 18.89° C | 51% | 1010.8 hPa | - | - | - | - |
| 1787977285 | 18.33° C | 52% | 1010.7 hPa | - | - | - | - |
| 1787976385 | 17.78° C | 56% | 1010.7 hPa | - | - | - | - |
| 1787975485 | 16.67° C | 59% | 1010.3 hPa | - | - | - | - |
| 1787974585 | 16.67° C | 60% | 1010.2 hPa | - | - | - | - |
| 1787973685 | 16.67° C | 60% | 1009.9 hPa | - | - | - | - |
| 1787972785 | 16.67° C | 61% | 1010.1 hPa | - | - | - | - |
| 1787971885 | 16.67° C | 60% | 1010.3 hPa | - | - | - | - |
| 1787970985 | 16.67° C | 58% | 1010.7 hPa | - | - | - | - |
| 1787970085 | 16.67° C | 57% | 1010.8 hPa | - | - | - | - |
| 1787969185 | 16.67° C | 57% | 1010.7 hPa | - | - | - | - |
| 1787968285 | 16.67° C | 57% | 1010.6 hPa | - | - | - | - |
| 1787967385 | 16.67° C | 55% | 1010.7 hPa | - | - | - | - |
| 1787966485 | 17.22° C | 54% | 1010.6 hPa | - | - | - | - |
| 1787965585 | 16.67° C | 55% | 1010.6 hPa | - | - | - | - |
| 1787964685 | 17.22° C | 53% | 1010.8 hPa | - | - | - | - |
| 1787963785 | 17.78° C | 52% | 1011.1 hPa | - | - | - | - |
* Rain since midnight (hover to see other rain measurements)
** Current wind speed in m/s (hover to see current wind gust speed)